Latest Weather Observations for Edinburgh

IDS60901

Issued at 9:41 pm CDT Monday 30 January 2023 (issued every 10 minutes, with the page automatically refreshed every 10 minutes)

About weather observations | Map of Adelaide area stations | Latest observations for Adelaide area | Other Formats
Station Details ID: 023083 Name: EDINBURGH RAAF Lat: -34.71 Lon: 138.62 Height: 16.54 m
Data from the previous 72 hours. | See also: Recent months at Edinburgh
Date/Time
CDT
Temp
°C
App
Temp
°C
Dew
Point
°C
Rel
Hum
%
Delta-T
°C
Wind Press
QNH
hPa
Press
MSL
hPa
Rain since
9am
mm
Dir  Spd
km/h
Gust
km/h
Spd
kts
Gust
kts
30/09:30pm 19.1 16.8 10.6 58 4.6 SSE 13 20 7 11 1012.2 1012.1 0.0
30/09:00pm 20.1 17.1 10.5 54 5.2 SE 17 24 9 13 1011.9 1011.8 0.0
30/08:30pm 21.8 19.8 11.5 52 5.7 SE 13 19 7 10 1011.7 1011.6 0.0
30/08:00pm 22.9 18.5 11.6 49 6.3 SSW 26 32 14 17 1011.2 1011.1 0.0
30/07:30pm 23.8 21.0 13.1 51 6.2 SW 20 26 11 14 1011.1 1011.0 0.0
30/07:00pm 24.2 21.0 13.1 50 6.4 SW 22 30 12 16 1011.0 1010.9 0.0
30/06:30pm 24.5 20.5 11.8 45 7.2 SW 24 30 13 16 1011.1 1011.0 0.0
30/06:00pm 24.8 21.5 12.7 47 7.0 SW 22 30 12 16 1011.2 1011.1 0.0
30/05:30pm 25.1 21.4 12.7 46 7.2 WSW 24 30 13 16 1011.3 1011.2 0.0
30/05:00pm 25.5 22.1 13.7 48 6.9 SW 24 32 13 17 1011.5 1011.4 0.0
30/04:30pm 25.7 22.6 13.5 46 7.2 SW 22 28 12 15 1011.7 1011.6 0.0
30/04:00pm 26.6 24.1 14.0 46 7.5 WSW 20 28 11 15 1011.9 1011.8 0.0
30/03:30pm 25.4 22.6 13.3 47 7.1 WSW 20 28 11 15 1012.3 1012.2 0.0
30/03:00pm 26.3 23.9 14.4 48 7.1 W 20 30 11 16 1012.7 1012.6 0.0
30/02:30pm 25.5 24.2 14.9 52 6.4 WSW 15 24 8 13 1012.9 1012.8 0.0
30/02:00pm 24.9 23.7 14.1 51 6.4 SW 13 20 7 11 1013.0 1012.9 0.0
30/01:30pm 24.1 23.0 14.2 54 5.8 SW 13 20 7 11 1013.5 1013.4 0.0
30/01:00pm 23.4 22.5 13.8 54 5.6 W 11 19 6 10 1013.6 1013.5 0.0
30/12:30pm 23.4 23.2 13.6 54 5.7 NW 7 15 4 8 1013.8 1013.7 0.0
30/12:00pm 23.2 23.0 13.7 55 5.5 WNW 7 9 4 5 1014.0 1013.9 0.0
30/11:30am 23.0 23.1 14.0 57 5.3 N 6 9 3 5 1014.3 1014.2 0.0
30/11:00am 22.1 21.5 13.5 58 5.0 NNE 9 13 5 7 1014.6 1014.5 0.0
30/10:44am 22.9 23.0 13.9 57 5.3 WNW 6 9 3 5 1014.7 1014.6 0.0
30/10:30am 21.7 21.5 13.1 58 4.9 NE 6 9 3 5 1014.8 1014.7 0.0
30/10:24am 23.1 23.9 14.9 60 4.9 NE 4 9 2 5 1014.7 1014.6 0.0
30/10:00am 21.1 21.0 13.3 61 4.5 ESE 6 9 3 5 1014.9 1014.8 0.0
30/09:30am 20.4 20.6 13.1 63 4.2 NNW 4 7 2 4 1015.0 1014.9 0.0
30/09:00am 19.7 20.6 12.9 65 3.8 CALM 0 6 0 3 1015.1 1015.0 0.0
30/08:30am 19.1 19.7 13.1 68 3.4 WSW 2 6 1 3 1015.1 1015.0 0.0
30/08:00am 17.8 17.3 12.7 72 2.8 SW 7 9 4 5 1014.7 1014.6 0.0
30/07:30am 17.3 16.5 12.8 75 2.5 SSW 9 11 5 6 1014.4 1014.3 0.0
30/07:00am 17.0 16.6 12.5 75 2.5 SSW 6 7 3 4 1014.0 1013.9 0.0
30/06:30am 17.3 16.8 12.0 71 2.9 SE 6 7 3 4 1013.9 1013.8 0.0
30/06:00am 17.3 16.5 11.8 70 3.0 SSE 7 11 4 6 1013.9 1013.8 0.0
30/05:30am 17.3 16.1 11.6 69 3.1 SE 9 11 5 6 1013.7 1013.6 0.0
30/05:00am 17.3 16.1 11.6 69 3.1 SE 9 15 5 8 1013.7 1013.6 0.0
30/04:30am 17.3 16.5 11.8 70 3.0 SSE 7 9 4 5 1013.8 1013.7 0.0
30/04:00am 17.3 16.5 11.8 70 3.0 SE 7 11 4 6 1013.7 1013.6 0.0
30/03:30am 17.3 16.2 11.8 70 3.0 SSE 9 13 5 7 1013.6 1013.5 0.0
30/03:00am 17.4 15.8 11.7 69 3.1 ESE 11 15 6 8 1013.6 1013.5 0.0
30/02:30am 17.8 16.7 11.8 68 3.3 ESE 9 13 5 7 1013.7 1013.6 0.0
30/02:00am 18.1 16.5 11.7 66 3.5 ESE 11 15 6 8 1013.7 1013.6 0.0
30/01:30am 18.5 17.8 12.0 66 3.6 SE 7 13 4 7 1013.8 1013.7 0.0
30/01:00am 18.7 18.2 12.2 66 3.6 SSE 6 9 3 5 1013.9 1013.8 0.0
30/12:30am 18.9 17.9 12.2 65 3.7 SE 9 11 5 6 1013.8 1013.7 0.0
30/12:00am 19.2 18.2 12.2 64 3.9 SE 9 13 5 7 1013.9 1013.8 0.0
 
Date/Time
CDT
Temp
°C
App
Temp
°C
Dew
Point
°C
Rel
Hum
%
Delta-T
°C
Wind Press
QNH
hPa
Press
MSL
hPa
Rain since
9am
mm
Dir  Spd
km/h
Gust
km/h
Spd
kts
Gust
kts
29/11:30pm 19.2 18.2 12.2 64 3.9 SE 9 13 5 7 1014.0 1013.9 0.0
29/11:00pm 19.5 18.5 12.3 63 4.0 ESE 9 13 5 7 1014.3 1014.2 0.0
29/10:30pm 19.7 18.8 12.5 63 4.0 SE 9 13 5 7 1014.6 1014.5 0.0
29/10:00pm 19.9 19.4 12.7 63 4.1 ESE 7 13 4 7 1014.4 1014.3 0.0
29/09:30pm 19.9 18.3 12.7 63 4.1 SE 13 17 7 9 1014.1 1014.0 0.0
29/09:00pm 20.1 18.9 12.8 63 4.1 SE 11 19 6 10 1013.8 1013.7 0.0
29/08:30pm 20.5 19.3 12.7 61 4.4 SE 11 17 6 9 1013.7 1013.6 0.0
29/08:00pm 20.8 19.2 12.8 60 4.5 SE 13 19 7 10 1013.4 1013.3 0.0
29/07:30pm 21.3 20.2 13.2 60 4.6 SE 11 15 6 8 1013.3 1013.2 0.0
29/07:00pm 21.5 21.0 13.9 62 4.4 ESE 9 13 5 7 1013.1 1013.0 0.0
29/06:30pm 21.5 20.3 13.9 62 4.4 SE 13 17 7 9 1013.0 1012.9 0.0
29/06:00pm 21.9 20.8 14.3 62 4.4 SE 13 17 7 9 1012.8 1012.7 0.0
29/05:30pm 21.8 21.4 15.2 66 3.9 SE 11 19 6 10 1012.6 1012.5 0.0
29/05:00pm 21.4 20.9 14.8 66 3.9 ESE 11 15 6 8 1012.8 1012.7 0.0
29/04:30pm 21.4 20.5 14.8 66 3.9 SE 13 17 7 9 1012.8 1012.7 0.0
29/04:00pm 21.6 20.1 15.2 67 3.8 SSE 17 20 9 11 1012.7 1012.6 0.0
29/03:30pm 21.4 20.0 14.6 65 4.0 ESE 15 22 8 12 1012.7 1012.6 0.0
29/03:00pm 21.3 20.2 15.4 69 3.5 SE 15 20 8 11 1012.7 1012.6 0.0
29/02:30pm 21.6 20.1 15.4 68 3.7 ESE 17 22 9 12 1012.7 1012.6 0.0
29/02:00pm 21.3 20.9 16.3 73 3.0 SE 13 20 7 11 1012.8 1012.7 0.0
29/01:53pm 20.8 19.6 16.0 74 2.9 SE 17 26 9 14 1012.8 1012.7 0.0
29/01:39pm 20.1 19.7 16.1 78 2.4 SE 13 20 7 11 1012.8 1012.7 0.0
29/01:30pm 20.5 20.1 16.1 76 2.6 SE 13 19 7 10 1012.8 1012.7 0.0
29/01:00pm 20.2 19.4 16.0 77 2.5 SE 15 22 8 12 1012.5 1012.4 0.0
29/12:30pm 19.6 18.6 16.6 83 1.8 ESE 17 24 9 13 1012.8 1012.7 0.0
29/12:00pm 20.0 19.3 16.4 80 2.2 E 15 24 8 13 1013.0 1012.9 0.0
29/11:30am 19.7 20.0 16.0 79 2.2 ESE 9 15 5 8 1012.9 1012.8 0.0
29/11:00am 19.9 20.2 16.0 78 2.3 ESE 9 13 5 7 1012.9 1012.8 0.0
29/10:30am 19.6 18.7 15.9 79 2.2 SE 15 20 8 11 1012.7 1012.6 0.0
29/10:00am 19.9 20.4 16.5 81 2.0 ESE 9 15 5 8 1012.8 1012.7 0.0
29/09:30am 20.0 20.4 16.4 80 2.2 E 9 13 5 7 1012.7 1012.6 0.0
29/09:00am 20.2 20.9 17.0 82 1.9 ENE 9 11 5 6 1012.2 1012.1 11.0
29/08:30am 20.2 20.6 17.2 83 1.8 ESE 11 15 6 8 1011.9 1011.8 11.0
29/08:00am 20.4 22.5 18.9 91 0.9 SSE 6 7 3 4 1011.6 1011.5 11.0
29/07:30am 20.1 21.9 18.8 92 0.8 SSE 7 9 4 5 1011.3 1011.2 11.0
29/07:00am 19.9 20.9 18.6 92 0.8 SSW 11 15 6 8 1011.0 1010.9 11.0
29/06:30am 19.7 21.5 18.4 92 0.8 S 6 7 3 4 1010.7 1010.6 11.0
29/06:00am 19.7 21.4 18.4 92 0.8 SSW 7 9 4 5 1010.5 1010.4 11.0
29/05:30am 19.7 21.3 18.2 91 0.9 S 7 9 4 5 1010.4 1010.3 10.8
29/05:00am 19.6 20.7 18.1 91 0.9 S 9 11 5 6 1010.3 1010.2 10.8
29/04:30am 19.7 21.3 18.2 91 0.9 S 7 11 4 6 1010.4 1010.3 10.2
29/04:00am 19.4 21.0 17.9 91 0.9 SE 6 7 3 4 1010.5 1010.4 10.0
29/03:30am 19.3 20.6 17.6 90 1.0 SE 7 11 4 6 1010.6 1010.5 9.4
29/03:00am 19.5 20.5 17.8 90 1.0 SSE 9 15 5 8 1010.4 1010.3 8.4
29/02:30am 19.6 20.6 17.7 89 1.2 S 9 13 5 7 1010.8 1010.7 8.0
29/02:00am 19.8 20.5 17.9 89 1.2 SSW 11 13 6 7 1010.7 1010.6 7.8
29/01:30am 20.0 20.9 18.5 91 0.9 WSW 11 15 6 8 1010.8 1010.7 7.8
29/01:00am 20.0 20.5 18.3 90 1.1 W 13 17 7 9 1011.1 1011.0 7.4
29/12:30am 20.2 22.8 18.5 90 1.1 S 2 7 1 4 1010.6 1010.5 7.0
29/12:00am 20.3 21.8 18.8 91 0.9 SSE 9 11 5 6 1009.9 1009.8 6.8
 
Date/Time
CDT
Temp
°C
App
Temp
°C
Dew
Point
°C
Rel
Hum
%
Delta-T
°C
Wind Press
QNH
hPa
Press
MSL
hPa
Rain since
9am
mm
Dir  Spd
km/h
Gust
km/h
Spd
kts
Gust
kts
28/11:30pm 20.2 21.2 18.7 91 0.9 S 11 15 6 8 1009.7 1009.6 6.6
28/11:00pm 20.1 20.3 18.6 91 0.9 S 15 17 8 9 1010.1 1010.0 6.0
28/10:30pm 20.1 21.0 18.4 90 1.1 SSW 11 13 6 7 1010.3 1010.2 5.6
28/10:00pm 20.3 22.0 18.1 87 1.4 SE 6 7 3 4 1010.2 1010.1 4.8
28/09:30pm 20.3 22.8 18.1 87 1.4 SE 2 9 1 5 1010.3 1010.2 4.0
28/09:00pm 20.7 23.6 18.1 85 1.6 CALM 0 0 0 0 1010.5 1010.4 2.8
28/08:30pm 20.7 23.1 17.9 84 1.7 N 2 7 1 4 1010.5 1010.4 2.2
28/08:00pm 20.9 22.6 18.1 84 1.7 NNW 6 7 3 4 1010.5 1010.4 2.0
28/07:30pm 21.3 22.3 18.7 85 1.6 NNW 11 13 6 7 1010.6 1010.5 1.6
28/07:00pm 21.3 23.2 17.7 80 2.2 W 4 7 2 4 1010.2 1010.1 1.4
28/06:30pm 21.6 22.2 18.6 83 1.9 W 13 17 7 9 1010.0 1009.9 1.2
28/06:00pm 22.7 24.6 18.5 77 2.6 WSW 6 15 3 8 1009.5 1009.4 0.8
28/05:30pm 23.7 25.2 18.8 74 3.1 WSW 9 13 5 7 1008.5 1008.5 0.0
28/05:00pm 24.7 24.7 18.2 67 4.1 SW 15 19 8 10 1008.0 1008.0 0.0
28/04:30pm 26.4 26.5 14.5 48 7.1 SW 7 9 4 5 1008.2 1008.2 0.0
28/04:00pm 26.8 27.0 14.2 46 7.5 WSW 6 9 3 5 1007.9 1007.9 0.0
28/03:30pm 26.5 26.3 14.6 48 7.2 SSE 9 15 5 8 1007.9 1007.9 0.0
28/03:00pm 26.0 25.6 15.1 51 6.6 SSE 11 17 6 9 1008.9 1008.8 0.0
28/02:30pm 24.9 23.1 15.5 56 5.7 SW 19 24 10 13 1009.4 1009.3 0.0
28/02:00pm 22.8 21.6 16.1 66 4.1 SSE 17 24 9 13 1008.7 1008.6 0.0
28/01:30pm 24.4 21.2 15.3 57 5.5 SW 26 32 14 17 1009.7 1009.6 0.0
28/01:00pm 25.3 22.6 15.6 55 5.9 WSW 24 28 13 15 1009.5 1009.4 0.0
28/12:30pm 27.5 25.0 14.2 44 8.0 W 20 28 11 15 1009.0 1008.9 0.0
28/12:00pm 29.0 26.1 14.0 39 9.0 SW 22 33 12 18 1008.3 1008.3 0.0
28/11:30am 28.0 25.1 12.8 39 8.9 SSW 20 26 11 14 1008.0 1008.0 0.0
28/11:00am 28.5 25.6 11.1 34 9.9 SSW 17 24 9 13 1008.4 1008.4 0.0
28/10:30am 28.8 26.4 11.4 34 10.0 SW 15 19 8 10 1008.7 1008.6 0.0
28/10:00am 27.9 25.5 11.5 36 9.4 SW 15 20 8 11 1008.9 1008.8 0.0
28/09:30am 28.1 26.1 11.6 36 9.5 SSW 13 17 7 9 1008.4 1008.4 0.0
28/09:00am 27.9 26.0 10.6 34 9.8 S 11 17 6 9 1008.2 1008.2 0.0
28/08:30am 27.5 26.0 10.7 35 9.5 SSE 9 17 5 9 1008.2 1008.2 0.0
28/08:00am 27.3 24.6 10.5 35 9.5 S 15 22 8 12 1008.1 1008.1 0.0
28/07:30am 26.5 23.2 11.0 38 8.8 SSW 19 24 10 13 1007.8 1007.8 0.0
28/07:00am 26.2 22.3 10.8 38 8.7 SSW 22 35 12 19 1007.3 1007.3 0.0
28/06:30am 25.4 21.9 10.8 40 8.2 SSW 20 28 11 15 1006.9 1006.9 0.0
28/06:00am 25.5 22.3 2.9 23 11.0 WNW 9 15 5 8 1005.9 1005.9 0.0
28/05:30am 26.9 23.4 1.3 19 12.3 ENE 9 13 5 7 1004.8 1004.8 0.0
28/05:00am 26.6 21.6 1.1 19 12.1 NW 17 28 9 15 1004.7 1004.7 0.0
28/04:30am 28.5 23.0 0.3 16 13.5 NE 19 22 10 12 1003.0 1003.0 0.0
28/04:00am 29.3 22.4 0.0 15 13.9 NE 26 35 14 19 1002.8 1002.8 0.0
28/03:30am 29.0 21.9 1.5 17 13.4 NE 28 37 15 20 1002.6 1002.6 0.0
28/03:00am 28.7 21.8 2.8 19 12.9 NE 28 37 15 20 1003.0 1003.0 0.0
28/02:30am 29.0 22.2 3.1 19 13.0 NE 28 39 15 21 1002.9 1002.9 0.0
28/02:00am 29.4 22.3 3.4 19 13.1 NE 30 39 16 21 1003.3 1003.3 0.0
28/01:30am 30.2 22.9 2.5 17 13.9 NE 30 41 16 22 1003.4 1003.4 0.0
28/01:01am 30.8 23.2 3.0 17 14.1 NE 32 50 17 27 1003.4 1003.4 0.0
28/01:00am 30.8 23.0 3.0 17 14.1 NE 33 50 18 27 1003.4 1003.4 0.0
28/12:30am 31.5 23.7 2.7 16 14.6 NE 33 43 18 23 1003.4 1003.4 0.0
28/12:00am 31.5 24.4 3.5 17 14.4 NE 30 39 16 21 1003.9 1003.9 0.0
 
Date/Time
CDT
Temp
°C
App
Temp
°C
Dew
Point
°C
Rel
Hum
%
Delta-T
°C
Wind Press
QNH
hPa
Press
MSL
hPa
Rain since
9am
mm
Dir  Spd
km/h
Gust
km/h
Spd
kts
Gust
kts
27/11:30pm 31.7 26.5 3.7 17 14.5 ENE 20 33 11 18 1004.2 1004.2 0.0
27/11:00pm 31.8 26.4 4.6 18 14.2 ENE 22 30 12 16 1004.6 1004.6 0.0
27/10:30pm 31.9 27.1 5.4 19 14.1 ENE 20 28 11 15 1005.1 1005.1 0.0
27/10:00pm 32.4 28.2 5.8 19 14.2 E 17 28 9 15 1005.5 1005.5 0.0

Latest Capital City Observations: Canberra | Sydney | Melbourne | Brisbane | Adelaide | Perth | Hobart | Darwin

Other formats

Comma delimited format used in spreadsheet applications
http://www.bom.gov.au/fwo/IDS60901/IDS60901.95676.axf

JavaScript Object Notation format (JSON) in row-major order
http://www.bom.gov.au/fwo/IDS60901/IDS60901.95676.json

Data quality

Most of these data are generated automatically and are frequently updated. Quality checks on data are not normally performed. It is possible for incorrect values to appear. Refer to information at About Latest Weather Observations and please check the disclaimer before using these data.